Time;durP1;ratioP1;P1;durP2;ratioP2;P2;SDS_P1;SDS_P2;PMS_P1;PMS_P2;Temp;Humidity;BMP_temperature;BMP_pressure;BME280_temperature;BME280_humidity;BME280_pressure;Samples;Min_cycle;Max_cycle;Signal;HPM_P1;HPM_P2
2021/12/17 00:00:45;;;;;;;7.05;5.45;;;3.70;99.90;;;;;;5017095;28;20305;-74
2021/12/17 00:03:20;;;;;;;4.68;4.28;;;3.70;99.90;;;;;;5022263;28;20231;-73
2021/12/17 00:06:07;;;;;;;5.07;4.68;;;3.70;99.90;;;;;;5016557;28;20748;-73
2021/12/17 00:08:35;;;;;;;4.60;4.20;;;3.70;99.90;;;;;;5020859;28;20223;-73
2021/12/17 00:11:03;;;;;;;5.40;4.50;;;3.70;99.90;;;;;;5018601;28;20710;-74
2021/12/17 00:13:33;;;;;;;4.57;4.18;;;3.60;99.90;;;;;;5017596;28;20231;-73
2021/12/17 00:16:01;;;;;;;5.38;4.90;;;3.60;99.90;;;;;;5024942;28;20253;-73
2021/12/17 00:18:35;;;;;;;5.20;4.80;;;3.60;99.90;;;;;;5022225;28;20235;-74
2021/12/17 00:43:56;;;;;;;5.47;4.97;;;3.40;99.90;;;;;;5020192;28;20237;-73
2021/12/17 00:48:50;;;;;;;5.10;4.70;;;3.40;99.90;;;;;;5020756;28;20292;-74
2021/12/17 00:51:55;;;;;;;4.20;3.90;;;3.40;99.90;;;;;;5017583;28;20375;-72
2021/12/17 00:54:31;;;;;;;3.92;3.65;;;3.40;99.90;;;;;;5018383;28;20306;-74
2021/12/17 00:57:01;;;;;;;4.75;4.35;;;3.40;99.90;;;;;;5024307;28;20236;-75
2021/12/17 00:59:28;;;;;;;3.85;3.65;;;3.40;99.90;;;;;;5023188;28;20224;-73
2021/12/17 01:01:58;;;;;;;4.38;4.07;;;3.50;99.90;;;;;;5023682;28;20762;-74
2021/12/17 01:04:26;;;;;;;4.07;3.78;;;3.50;99.90;;;;;;5023714;28;20235;-75
2021/12/17 01:06:53;;;;;;;3.90;3.60;;;3.50;99.90;;;;;;5025678;28;20615;-74
2021/12/17 01:09:25;;;;;;;4.22;3.92;;;3.50;99.90;;;;;;5022650;28;20277;-75
2021/12/17 01:11:53;;;;;;;4.40;4.03;;;3.50;99.90;;;;;;5026674;28;20248;-74
2021/12/17 01:14:20;;;;;;;4.32;4.03;;;3.50;99.90;;;;;;5023045;28;20234;-72
2021/12/17 01:16:50;;;;;;;3.97;3.67;;;3.50;99.90;;;;;;5023440;28;20463;-73
2021/12/17 01:19:26;;;;;;;4.32;4.03;;;3.40;99.90;;;;;;5018004;28;20271;-75
2021/12/17 01:22:00;;;;;;;3.95;3.67;;;3.40;99.90;;;;;;5026666;28;20912;-73
2021/12/17 01:24:37;;;;;;;4.13;3.83;;;3.50;99.90;;;;;;5021432;28;20265;-73
2021/12/17 01:35:25;;;;;;;3.08;2.88;;;3.50;99.90;;;;;;5018908;28;20693;-75
2021/12/17 01:43:35;;;;;;;3.80;3.45;;;3.40;99.90;;;;;;5025366;28;20664;-74
2021/12/17 01:46:04;;;;;;;4.45;4.15;;;3.40;99.90;;;;;;5028523;28;20245;-76
2021/12/17 01:48:48;;;;;;;3.65;3.35;;;3.40;99.90;;;;;;5028761;28;20322;-74
2021/12/17 01:56:56;;;;;;;4.28;3.95;;;3.40;99.90;;;;;;5030174;28;20262;-77
2021/12/17 01:59:29;;;;;;;3.20;3.00;;;3.40;99.90;;;;;;5030993;28;20223;-74
2021/12/17 02:02:02;;;;;;;3.97;3.67;;;3.40;99.90;;;;;;5029173;28;20805;-73
2021/12/17 02:04:30;;;;;;;3.22;3.03;;;3.40;99.90;;;;;;5028778;28;20314;-73
2021/12/17 02:06:59;;;;;;;4.15;3.75;;;3.30;99.90;;;;;;5021066;28;20234;-73
2021/12/17 02:10:11;;;;;;;3.30;3.10;;;3.30;99.90;;;;;;5017867;28;20717;-76
2021/12/17 02:12:56;;;;;;;4.07;3.78;;;3.40;99.90;;;;;;5016825;28;20220;-73
2021/12/17 02:21:27;;;;;;;4.88;4.38;;;3.40;99.90;;;;;;5025924;28;20245;-74
2021/12/17 02:29:59;;;;;;;3.72;3.22;;;3.30;99.90;;;;;;5018026;28;20681;-75
2021/12/17 02:32:29;;;;;;;3.97;3.67;;;3.30;99.90;;;;;;5026613;28;20278;-74
2021/12/17 02:35:22;;;;;;;3.83;3.53;;;3.30;99.90;;;;;;5022601;28;20263;-76
2021/12/17 02:37:52;;;;;;;2.97;2.78;;;3.30;99.90;;;;;;5031671;28;20224;-74
2021/12/17 02:45:45;;;;;;;3.78;3.58;;;3.30;99.90;;;;;;5024322;28;20580;-73
2021/12/17 02:48:14;;;;;;;3.95;3.65;;;3.30;99.90;;;;;;5027052;28;20247;-74
2021/12/17 02:50:43;;;;;;;3.90;3.60;;;3.30;99.90;;;;;;5019384;28;20290;-73
2021/12/17 02:53:13;;;;;;;3.55;3.35;;;3.30;99.90;;;;;;5022091;28;20239;-73
2021/12/17 02:55:42;;;;;;;4.07;3.78;;;3.30;99.90;;;;;;5022290;28;20605;-73
2021/12/17 02:58:10;;;;;;;3.40;3.20;;;3.30;99.90;;;;;;5021092;28;20574;-73
2021/12/17 03:00:39;;;;;;;3.65;3.45;;;3.30;99.90;;;;;;5021040;28;20754;-75
2021/12/17 03:03:08;;;;;;;3.53;3.28;;;3.30;99.90;;;;;;5022712;28;20728;-73
2021/12/17 03:05:38;;;;;;;4.13;3.83;;;3.40;99.90;;;;;;5016620;28;20756;-72
2021/12/17 03:08:07;;;;;;;4.28;3.97;;;3.30;99.90;;;;;;5025920;28;20959;-73
2021/12/17 03:10:36;;;;;;;3.90;3.60;;;3.40;99.90;;;;;;5014560;28;20702;-76
2021/12/17 03:13:04;;;;;;;3.70;3.50;;;3.40;99.90;;;;;;5019266;28;20236;-73
2021/12/17 03:15:36;;;;;;;4.50;4.20;;;3.40;99.90;;;;;;5024043;28;20690;-75
2021/12/17 03:18:48;;;;;;;3.90;3.60;;;3.40;99.90;;;;;;5026091;28;20227;-73
2021/12/17 03:23:56;;;;;;;4.50;4.20;;;3.30;99.90;;;;;;4983420;28;20277;-72
2021/12/17 03:26:27;;;;;;;4.80;4.22;;;3.20;99.90;;;;;;5022186;28;20951;-73
2021/12/17 03:28:55;;;;;;;4.32;4.03;;;3.10;99.90;;;;;;5022702;28;20232;-73
2021/12/17 03:31:24;;;;;;;4.07;3.83;;;3.10;99.90;;;;;;5022294;28;20290;-73
2021/12/17 03:33:54;;;;;;;4.55;4.15;;;3.10;99.90;;;;;;5017172;28;20243;-73
2021/12/17 03:36:21;;;;;;;3.67;3.42;;;3.00;99.90;;;;;;5015622;28;20647;-73
2021/12/17 03:38:50;;;;;;;4.05;3.85;;;3.00;99.90;;;;;;5022879;28;20231;-73
2021/12/17 03:41:21;;;;;;;3.83;3.50;;;3.00;99.90;;;;;;5017246;28;20219;-73
2021/12/17 03:43:51;;;;;;;4.20;3.83;;;3.00;99.90;;;;;;5034708;22;20232;-78
2021/12/17 03:46:20;;;;;;;4.78;4.38;;;3.00;99.90;;;;;;5003996;28;20275;-77
2021/12/17 03:48:47;;;;;;;4.47;4.05;;;3.00;99.90;;;;;;5007048;28;20293;-77
2021/12/17 03:51:16;;;;;;;4.05;3.75;;;3.00;99.90;;;;;;5006258;28;20220;-78
2021/12/17 03:53:46;;;;;;;4.63;4.32;;;3.00;99.90;;;;;;5001602;28;20228;-77
2021/12/17 03:56:13;;;;;;;4.15;3.80;;;3.00;99.90;;;;;;4987456;28;20232;-78
2021/12/17 03:58:41;;;;;;;4.30;3.90;;;2.90;99.90;;;;;;4987520;28;20236;-77
2021/12/17 04:01:09;;;;;;;4.00;3.70;;;2.90;99.90;;;;;;4988680;28;20510;-75
2021/12/17 04:03:36;;;;;;;4.30;3.92;;;2.90;99.90;;;;;;4985491;28;20650;-78
2021/12/17 04:06:04;;;;;;;4.07;3.78;;;2.90;99.90;;;;;;4988285;28;20224;-77
2021/12/17 04:08:31;;;;;;;3.85;3.45;;;2.90;99.90;;;;;;4992583;28;20302;-75
2021/12/17 04:11:04;;;;;;;4.20;3.80;;;2.90;99.90;;;;;;4983834;28;20229;-76
2021/12/17 04:13:34;;;;;;;4.10;3.80;;;2.90;99.90;;;;;;4990559;28;20224;-76
2021/12/17 04:16:04;;;;;;;4.72;4.32;;;2.90;99.90;;;;;;4987051;28;20240;-78
2021/12/17 04:18:33;;;;;;;4.00;3.70;;;2.90;99.90;;;;;;4985344;28;20224;-76
2021/12/17 04:21:03;;;;;;;3.17;2.97;;;2.90;99.90;;;;;;4983703;28;20578;-77
2021/12/17 04:23:31;;;;;;;3.85;3.55;;;2.90;99.90;;;;;;4991059;28;20220;-78
2021/12/17 04:25:59;;;;;;;3.97;3.78;;;2.90;99.90;;;;;;4985264;28;20235;-77
2021/12/17 04:28:27;;;;;;;4.63;4.07;;;3.00;99.90;;;;;;4989673;28;20221;-77
2021/12/17 04:30:55;;;;;;;4.15;3.85;;;3.00;99.90;;;;;;4984786;28;20225;-77
2021/12/17 04:33:22;;;;;;;4.20;3.90;;;3.00;99.90;;;;;;4990003;28;20225;-77
2021/12/17 04:35:50;;;;;;;3.88;3.67;;;3.00;99.90;;;;;;4986415;28;20237;-77
2021/12/17 04:38:18;;;;;;;4.25;3.95;;;3.00;99.90;;;;;;4988878;28;20302;-77
2021/12/17 04:40:46;;;;;;;4.05;3.75;;;3.00;99.90;;;;;;4990342;28;20246;-77
2021/12/17 04:43:22;;;;;;;3.60;3.30;;;3.00;99.90;;;;;;4987210;28;20244;-77
2021/12/17 04:45:58;;;;;;;3.60;3.40;;;3.00;99.90;;;;;;4988089;28;20220;-77
2021/12/17 04:59:24;;;;;;;3.17;2.97;;;3.00;99.90;;;;;;4996940;28;20238;-78
2021/12/17 05:01:51;;;;;;;3.30;3.10;;;3.00;99.90;;;;;;4991321;28;20761;-76
2021/12/17 05:04:19;;;;;;;3.70;3.50;;;3.00;99.90;;;;;;4991696;28;20579;-76
2021/12/17 05:06:48;;;;;;;3.45;3.25;;;3.00;99.90;;;;;;4992537;28;20235;-77
2021/12/17 05:09:25;;;;;;;2.70;2.60;;;3.00;99.90;;;;;;4991985;28;20623;-78
2021/12/17 05:20:19;;;;;;;3.72;3.53;;;2.80;99.90;;;;;;4983237;28;20303;-77
2021/12/17 05:22:52;;;;;;;3.72;3.53;;;2.70;99.90;;;;;;4987316;28;20225;-78
2021/12/17 05:25:19;;;;;;;4.03;3.75;;;2.70;99.90;;;;;;4995176;28;20224;-78
2021/12/17 05:27:46;;;;;;;3.85;3.65;;;2.70;99.90;;;;;;4989162;28;20241;-78
2021/12/17 05:30:13;;;;;;;3.92;3.63;;;2.70;99.90;;;;;;4993853;28;20240;-76
2021/12/17 05:32:40;;;;;;;3.80;3.60;;;2.70;99.90;;;;;;4992723;28;20600;-78
2021/12/17 05:35:08;;;;;;;4.25;3.85;;;2.60;99.90;;;;;;4994966;28;20232;-75
2021/12/17 05:37:35;;;;;;;4.47;4.07;;;2.70;99.90;;;;;;4995241;28;20270;-77
2021/12/17 05:40:04;;;;;;;3.35;3.15;;;2.70;99.90;;;;;;4992603;28;20228;-78
2021/12/17 05:42:31;;;;;;;3.78;3.47;;;2.80;99.90;;;;;;4988723;28;20228;-75
2021/12/17 05:45:07;;;;;;;3.90;3.70;;;2.80;99.90;;;;;;4992066;28;20304;-78
2021/12/17 05:47:34;;;;;;;4.30;4.00;;;2.90;99.90;;;;;;4991457;28;20235;-76
2021/12/17 05:50:01;;;;;;;4.40;4.00;;;2.90;99.90;;;;;;4989568;28;20232;-78
2021/12/17 05:52:28;;;;;;;4.22;3.92;;;2.90;99.90;;;;;;4988448;28;20236;-77
2021/12/17 05:54:55;;;;;;;4.30;4.00;;;2.90;99.90;;;;;;4986452;28;20587;-76
2021/12/17 05:57:24;;;;;;;3.88;3.58;;;2.90;99.90;;;;;;4990399;28;20240;-78
2021/12/17 05:59:51;;;;;;;3.72;3.53;;;2.90;99.90;;;;;;4994586;28;20232;-76
2021/12/17 06:02:19;;;;;;;4.18;3.88;;;2.90;99.90;;;;;;4990347;28;20624;-78
2021/12/17 06:04:46;;;;;;;4.18;3.88;;;3.00;99.90;;;;;;4993506;28;20232;-79
2021/12/17 06:07:14;;;;;;;3.88;3.67;;;3.00;99.90;;;;;;4990249;28;20295;-78
2021/12/17 06:09:41;;;;;;;4.70;4.40;;;3.00;99.90;;;;;;4992497;28;20232;-78
2021/12/17 06:12:08;;;;;;;3.65;3.45;;;3.00;99.90;;;;;;4993590;28;20240;-76
2021/12/17 06:14:38;;;;;;;4.30;3.95;;;2.90;99.90;;;;;;4988779;28;20285;-77
2021/12/17 06:17:05;;;;;;;3.63;3.42;;;3.00;99.90;;;;;;4991884;28;20225;-77
2021/12/17 06:19:32;;;;;;;3.70;3.50;;;3.00;99.90;;;;;;4991435;28;20232;-77
2021/12/17 06:21:59;;;;;;;3.88;3.67;;;3.00;99.90;;;;;;4993706;28;20232;-76
2021/12/17 06:24:27;;;;;;;3.25;3.05;;;3.00;99.90;;;;;;4986030;28;20251;-78
2021/12/17 06:26:54;;;;;;;3.65;3.45;;;3.00;99.90;;;;;;4987971;28;20256;-76
2021/12/17 06:29:21;;;;;;;3.33;3.13;;;3.00;99.90;;;;;;4979687;28;20299;-76
2021/12/17 06:31:49;;;;;;;3.90;3.60;;;3.00;99.90;;;;;;4985113;28;20251;-76
2021/12/17 06:34:17;;;;;;;3.28;3.08;;;3.10;99.90;;;;;;4987629;28;20228;-78
2021/12/17 06:36:44;;;;;;;3.50;3.30;;;3.10;99.90;;;;;;4991019;28;20304;-77
2021/12/17 06:39:11;;;;;;;2.97;2.78;;;3.10;99.90;;;;;;4982675;28;20232;-75
2021/12/17 06:41:39;;;;;;;3.65;3.45;;;3.10;99.90;;;;;;4985910;28;20229;-79
2021/12/17 06:44:07;;;;;;;3.45;3.25;;;3.00;99.90;;;;;;4985617;28;20233;-74
2021/12/17 06:46:46;;;;;;;3.90;3.60;;;3.00;99.90;;;;;;4985936;28;20328;-77
2021/12/17 06:49:23;;;;;;;3.97;3.78;;;2.90;99.90;;;;;;4987360;28;20235;-76
2021/12/17 06:54:58;;;;;;;3.47;3.28;;;2.80;99.90;;;;;;4985455;28;20243;-78
2021/12/17 07:00:22;;;;;;;3.63;3.33;;;2.70;99.90;;;;;;4992616;28;20236;-79
2021/12/17 07:11:36;;;;;;;3.40;3.20;;;2.80;99.90;;;;;;4990289;28;20238;-79
2021/12/17 07:17:14;;;;;;;3.53;3.33;;;2.90;99.90;;;;;;4991036;28;20227;-77
2021/12/17 07:22:42;;;;;;;3.13;2.78;;;2.90;99.90;;;;;;4979107;28;20727;-78
2021/12/17 07:28:10;;;;;;;3.30;3.10;;;3.00;99.90;;;;;;4987549;28;20371;-79
2021/12/17 07:33:33;;;;;;;3.85;3.45;;;3.00;99.90;;;;;;4988628;28;20351;-77
2021/12/17 07:36:08;;;;;;;4.57;4.05;;;3.00;99.90;;;;;;4982533;28;20252;-79
2021/12/17 07:38:38;;;;;;;4.03;3.72;;;3.00;99.90;;;;;;4986749;28;20234;-77
2021/12/17 07:41:06;;;;;;;4.03;3.80;;;2.90;99.90;;;;;;4978982;28;20237;-78
2021/12/17 07:43:38;;;;;;;5.00;4.68;;;3.00;99.90;;;;;;4991493;28;20225;-79
2021/12/17 07:46:07;;;;;;;5.00;4.60;;;3.00;99.90;;;;;;4994166;28;20259;-79
2021/12/17 07:48:36;;;;;;;6.32;5.65;;;2.90;99.90;;;;;;4993153;28;20224;-79
2021/12/17 07:51:05;;;;;;;5.07;4.65;;;2.80;99.90;;;;;;4995903;28;20224;-76
2021/12/17 07:53:34;;;;;;;5.57;5.13;;;2.80;99.90;;;;;;4996254;28;20232;-78
2021/12/17 07:56:04;;;;;;;4.90;4.50;;;2.70;99.90;;;;;;4993533;28;20266;-78
2021/12/17 07:58:31;;;;;;;4.90;4.50;;;2.70;99.90;;;;;;4991804;28;20259;-78
2021/12/17 08:00:59;;;;;;;4.95;4.55;;;2.80;99.90;;;;;;4989139;28;20592;-77
2021/12/17 08:03:26;;;;;;;4.57;4.28;;;2.80;99.90;;;;;;4981752;28;20244;-76
2021/12/17 08:05:54;;;;;;;4.30;4.00;;;2.90;99.90;;;;;;4979399;28;20240;-77
2021/12/17 08:08:22;;;;;;;4.95;4.55;;;2.90;99.90;;;;;;4982852;28;20293;-77
2021/12/17 08:10:49;;;;;;;4.60;4.20;;;2.90;99.90;;;;;;4983784;28;20277;-77
2021/12/17 08:13:21;;;;;;;4.28;3.97;;;2.90;99.90;;;;;;4990232;28;20782;-76
2021/12/17 08:16:09;;;;;;;3.97;3.67;;;3.00;99.90;;;;;;4983067;28;20237;-79
2021/12/17 08:27:23;;;;;;;4.70;4.30;;;6.70;99.90;;;;;;4954555;28;20235;-76
2021/12/17 08:29:56;;;;;;;5.22;4.75;;;7.40;99.90;;;;;;4989617;28;20220;-77
2021/12/17 08:32:23;;;;;;;4.97;4.57;;;7.90;99.90;;;;;;4986826;28;20221;-78
2021/12/17 08:34:50;;;;;;;5.57;5.07;;;8.30;99.90;;;;;;4983922;28;20556;-79
2021/12/17 08:37:17;;;;;;;5.00;4.60;;;8.80;99.90;;;;;;4988661;28;20753;-77
2021/12/17 08:39:44;;;;;;;4.75;4.35;;;9.10;99.90;;;;;;4990473;28;20230;-78
2021/12/17 08:42:12;;;;;;;4.18;3.75;;;9.70;99.90;;;;;;4986559;28;20239;-78
2021/12/17 08:44:39;;;;;;;5.30;4.80;;;10.20;99.90;;;;;;4985518;28;20224;-77
2021/12/17 08:47:09;;;;;;;5.55;5.03;;;10.60;99.90;;;;;;4993491;28;20749;-79
2021/12/17 08:49:39;;;;;;;6.47;5.88;;;11.00;99.90;;;;;;4983099;28;20291;-78
2021/12/17 08:52:08;;;;;;;6.40;5.80;;;11.60;99.90;;;;;;4987422;28;20225;-75
2021/12/17 08:54:35;;;;;;;6.18;5.57;;;12.10;99.90;;;;;;4988159;28;20627;-77
2021/12/17 08:57:03;;;;;;;6.80;6.10;;;13.00;99.90;;;;;;4988497;28;20223;-78
2021/12/17 08:59:30;;;;;;;6.28;5.68;;;13.60;99.90;;;;;;4979412;28;20223;-77
2021/12/17 09:01:57;;;;;;;7.35;5.22;;;14.20;99.90;;;;;;4998830;28;20224;-78
2021/12/17 09:04:27;;;;;;;4.43;4.03;;;14.70;99.90;;;;;;4993292;28;20314;-78
2021/12/17 09:06:55;;;;;;;5.00;4.50;;;14.90;99.90;;;;;;4995579;28;20229;-81
2021/12/17 09:09:22;;;;;;;4.35;3.90;;;15.10;99.90;;;;;;4994950;28;20232;-79
2021/12/17 09:11:50;;;;;;;5.00;4.60;;;15.60;99.90;;;;;;4985932;28;20232;-80
2021/12/17 09:14:19;;;;;;;4.13;3.72;;;16.40;99.90;;;;;;4995047;28;20541;-81
2021/12/17 09:16:47;;;;;;;4.70;3.95;;;17.40;99.90;;;;;;4994426;28;20232;-80
2021/12/17 09:19:15;;;;;;;3.85;3.45;;;18.30;99.90;;;;;;4999101;28;20228;-78
2021/12/17 09:21:43;;;;;;;4.35;3.95;;;19.50;96.60;;;;;;4992992;28;20240;-80
2021/12/17 09:24:14;;;;;;;4.18;3.88;;;20.40;93.60;;;;;;4992681;28;20241;-81
2021/12/17 09:26:41;;;;;;;3.95;3.35;;;20.80;91.10;;;;;;4992776;28;20233;-78
2021/12/17 09:29:08;;;;;;;5.25;3.95;;;21.30;90.40;;;;;;4991909;28;20248;-78
2021/12/17 09:31:36;;;;;;;5.00;4.50;;;21.60;85.30;;;;;;4995487;28;20236;-78
2021/12/17 09:34:04;;;;;;;4.03;3.50;;;21.50;83.10;;;;;;4986334;28;20268;-77
2021/12/17 09:36:31;;;;;;;4.22;3.67;;;21.70;83.00;;;;;;4995419;28;20229;-80
2021/12/17 09:39:01;;;;;;;5.25;4.00;;;21.90;82.10;;;;;;4998665;28;20225;-80
2021/12/17 09:41:28;;;;;;;4.00;3.58;;;22.20;78.70;;;;;;4990997;28;20228;-79
2021/12/17 09:43:56;;;;;;;4.47;4.00;;;22.20;78.30;;;;;;4990810;28;20263;-79
2021/12/17 09:46:23;;;;;;;4.28;3.55;;;22.50;75.20;;;;;;4985995;28;20233;-80
2021/12/17 09:48:51;;;;;;;5.07;4.10;;;22.40;76.00;;;;;;5011889;22;21060;-73
2021/12/17 09:51:20;;;;;;;4.78;4.28;;;22.70;74.50;;;;;;5025128;28;20238;-75
2021/12/17 09:53:48;;;;;;;5.85;4.25;;;22.60;74.70;;;;;;5022329;28;20301;-77
2021/12/17 09:56:17;;;;;;;5.25;3.90;;;22.20;74.30;;;;;;5023830;28;20241;-77
2021/12/17 09:58:44;;;;;;;6.20;4.50;;;21.70;76.70;;;;;;5021757;28;20238;-82
2021/12/17 10:01:11;;;;;;;3.72;3.30;;;21.20;78.00;;;;;;5003165;28;20227;-78
2021/12/17 10:03:39;;;;;;;4.80;3.90;;;20.20;81.80;;;;;;5014596;28;20230;-75
2021/12/17 10:06:06;;;;;;;5.00;4.50;;;18.80;85.00;;;;;;5018204;28;20277;-75
2021/12/17 10:08:34;;;;;;;5.15;4.25;;;17.70;89.20;;;;;;5018496;28;20263;-77
2021/12/17 10:11:03;;;;;;;5.03;4.53;;;16.50;91.20;;;;;;5019409;28;20796;-74
2021/12/17 10:13:33;;;;;;;4.97;4.45;;;15.60;92.30;;;;;;5019087;28;20228;-77
2021/12/17 10:16:05;;;;;;;5.43;4.78;;;15.00;93.70;;;;;;5016055;28;20231;-75
2021/12/17 10:18:35;;;;;;;7.32;4.45;;;14.50;94.80;;;;;;5012055;28;20281;-77
2021/12/17 10:21:04;;;;;;;6.32;4.47;;;14.30;95.80;;;;;;5014363;28;20224;-77
2021/12/17 10:23:33;;;;;;;5.07;4.68;;;14.10;97.00;;;;;;5022924;28;20220;-74
2021/12/17 10:26:01;;;;;;;4.40;4.00;;;14.00;97.10;;;;;;5018302;28;20672;-76
2021/12/17 10:28:30;;;;;;;5.38;4.38;;;13.90;98.40;;;;;;5014645;28;20219;-79
2021/12/17 10:30:59;;;;;;;4.30;3.90;;;13.90;97.80;;;;;;5013395;28;21247;-76
2021/12/17 10:33:29;;;;;;;4.32;3.92;;;14.00;97.70;;;;;;5016572;28;20250;-75
2021/12/17 10:36:00;;;;;;;4.72;4.28;;;13.70;98.30;;;;;;5014416;28;20236;-73
2021/12/17 10:38:27;;;;;;;4.50;4.10;;;13.60;98.70;;;;;;5012748;28;20532;-75
2021/12/17 10:41:01;;;;;;;4.25;3.85;;;14.00;99.20;;;;;;5012648;28;20729;-80
2021/12/17 10:43:33;;;;;;;6.15;4.95;;;14.20;98.90;;;;;;5014817;28;20237;-76
2021/12/17 10:46:06;;;;;;;7.53;4.80;;;14.20;98.90;;;;;;5011972;28;20600;-80
2021/12/17 10:48:47;;;;;;;6.18;4.88;;;14.20;98.90;;;;;;5019151;28;20223;-75
2021/12/17 10:51:45;;;;;;;5.40;4.75;;;14.30;99.10;;;;;;5015303;28;20244;-78
2021/12/17 10:54:15;;;;;;;5.40;4.55;;;14.20;98.70;;;;;;5013744;28;20514;-76
2021/12/17 10:56:45;;;;;;;6.53;4.38;;;14.20;99.30;;;;;;5017582;28;20531;-79
2021/12/17 10:59:15;;;;;;;5.28;4.65;;;14.30;99.70;;;;;;5017779;28;20227;-78
2021/12/17 11:01:45;;;;;;;5.35;4.85;;;14.40;99.80;;;;;;5014612;28;20235;-80
2021/12/17 11:04:18;;;;;;;4.80;4.28;;;14.40;99.40;;;;;;5013694;28;20220;-75
2021/12/17 11:06:52;;;;;;;4.90;4.00;;;14.40;99.30;;;;;;5015858;28;20322;-76
2021/12/17 11:09:40;;;;;;;4.97;3.75;;;14.70;98.50;;;;;;5018984;28;20614;-75
2021/12/17 11:12:29;;;;;;;4.28;3.88;;;14.90;97.30;;;;;;5015036;28;20318;-81
2021/12/17 11:15:24;;;;;;;5.10;4.60;;;15.10;97.40;;;;;;5017315;28;20227;-78
2021/12/17 11:17:53;;;;;;;5.30;3.92;;;15.30;97.30;;;;;;5027562;28;20254;-76
2021/12/17 11:20:23;;;;;;;5.35;3.70;;;14.90;97.20;;;;;;5016641;28;20243;-75
2021/12/17 11:22:52;;;;;;;5.88;4.32;;;14.80;98.00;;;;;;5021204;28;20243;-77
2021/12/17 11:25:20;;;;;;;4.40;3.78;;;14.90;97.60;;;;;;5016209;28;20712;-75
2021/12/17 11:27:48;;;;;;;3.53;3.17;;;15.00;97.40;;;;;;5016711;28;20227;-77
2021/12/17 11:30:18;;;;;;;5.60;3.60;;;14.90;97.40;;;;;;5018939;28;20995;-76
2021/12/17 11:32:46;;;;;;;4.45;2.90;;;14.70;97.20;;;;;;5016938;28;20243;-77
2021/12/17 11:35:16;;;;;;;3.58;3.28;;;14.70;97.70;;;;;;5017351;28;20220;-75
2021/12/17 11:37:46;;;;;;;4.53;3.50;;;14.70;98.00;;;;;;5015493;28;20238;-78
2021/12/17 11:40:21;;;;;;;4.53;3.70;;;14.70;97.40;;;;;;5013963;28;20359;-76
2021/12/17 11:43:05;;;;;;;4.97;3.80;;;14.70;97.50;;;;;;5014382;28;20227;-73
2021/12/17 11:45:34;;;;;;;5.90;3.80;;;14.70;97.50;;;;;;5018339;28;20622;-75
2021/12/17 11:48:19;;;;;;;4.53;4.13;;;14.70;97.80;;;;;;5019586;28;20219;-76
2021/12/17 11:51:02;;;;;;;5.40;4.90;;;14.60;97.20;;;;;;5016656;28;20242;-74
2021/12/17 11:53:29;;;;;;;5.18;4.50;;;14.30;97.80;;;;;;5013970;28;20238;-78
2021/12/17 11:55:57;;;;;;;5.45;4.95;;;14.30;97.70;;;;;;5018326;28;20231;-76
2021/12/17 11:58:54;;;;;;;4.97;4.43;;;14.40;98.00;;;;;;5011022;28;20581;-75
2021/12/17 12:01:49;;;;;;;5.47;4.60;;;14.30;97.80;;;;;;5013052;28;20302;-72
2021/12/17 12:04:42;;;;;;;6.20;4.70;;;14.20;97.40;;;;;;5016759;28;20765;-74
2021/12/17 12:07:12;;;;;;;7.07;4.63;;;13.60;97.50;;;;;;4992012;28;20236;-74
2021/12/17 12:09:56;;;;;;;5.07;4.22;;;13.30;99.10;;;;;;5018079;28;20261;-74
2021/12/17 12:12:25;;;;;;;4.55;3.65;;;13.30;98.80;;;;;;5011704;28;20223;-76
2021/12/17 12:14:53;;;;;;;4.57;4.18;;;13.40;99.50;;;;;;5014932;28;20250;-74
2021/12/17 12:17:53;;;;;;;4.32;3.92;;;13.60;99.50;;;;;;5010397;28;20230;-73
2021/12/17 12:20:42;;;;;;;6.10;4.20;;;13.50;98.30;;;;;;4972072;28;20274;-74
2021/12/17 12:23:20;;;;;;;6.30;4.10;;;13.50;99.00;;;;;;5012805;28;20242;-75
2021/12/17 12:26:08;;;;;;;5.45;4.65;;;13.70;99.40;;;;;;5015169;28;20230;-71
2021/12/17 12:28:52;;;;;;;5.13;4.07;;;13.80;99.10;;;;;;5015270;28;20359;-74
2021/12/17 12:31:45;;;;;;;7.85;4.40;;;14.10;98.60;;;;;;5000714;28;21706;-76
2021/12/17 12:34:14;;;;;;;4.90;4.38;;;14.40;98.10;;;;;;5014113;28;20239;-74
2021/12/17 12:36:50;;;;;;;4.40;4.03;;;14.50;98.50;;;;;;5013617;28;20273;-75
2021/12/17 12:39:21;;;;;;;5.50;4.20;;;14.40;98.60;;;;;;5006107;28;20235;-74
2021/12/17 12:41:56;;;;;;;7.30;4.78;;;14.30;98.50;;;;;;5011907;28;20231;-75
2021/12/17 12:45:09;;;;;;;4.70;4.15;;;14.30;98.60;;;;;;5013401;28;20247;-74
2021/12/17 12:47:50;;;;;;;6.18;4.10;;;14.40;98.20;;;;;;5017797;28;20242;-74
2021/12/17 12:50:19;;;;;;;6.20;4.28;;;14.50;98.90;;;;;;5019139;28;20227;-75
2021/12/17 12:52:52;;;;;;;4.47;4.07;;;14.30;99.00;;;;;;5015689;28;20227;-73
2021/12/17 12:55:24;;;;;;;4.32;3.90;;;14.10;99.00;;;;;;5015509;28;20221;-73
2021/12/17 12:57:53;;;;;;;4.35;3.95;;;13.80;98.90;;;;;;5017287;28;20235;-74
2021/12/17 13:00:23;;;;;;;6.13;4.05;;;13.60;99.40;;;;;;5012834;28;20235;-75
2021/12/17 13:02:54;;;;;;;5.57;4.30;;;13.60;99.60;;;;;;5021814;28;20235;-74
2021/12/17 13:05:21;;;;;;;4.75;4.22;;;13.80;99.70;;;;;;5016897;28;20281;-73
2021/12/17 13:07:51;;;;;;;4.72;4.22;;;14.00;99.40;;;;;;5015672;28;20604;-74
2021/12/17 13:10:22;;;;;;;5.28;3.92;;;13.90;99.30;;;;;;5017605;28;20322;-73
2021/12/17 13:12:55;;;;;;;5.65;4.15;;;13.70;99.10;;;;;;5016299;28;20227;-73
2021/12/17 13:15:42;;;;;;;4.68;4.28;;;13.50;99.30;;;;;;5013932;28;20231;-76
2021/12/17 13:21:16;;;;;;;3.92;3.53;;;13.40;99.80;;;;;;5015709;28;20766;-75
2021/12/17 13:23:49;;;;;;;5.25;3.45;;;13.50;99.90;;;;;;5016996;28;20240;-72
2021/12/17 13:26:19;;;;;;;4.50;3.83;;;13.50;99.90;;;;;;5018740;28;20249;-75
2021/12/17 13:28:52;;;;;;;4.65;3.90;;;13.60;99.90;;;;;;5017342;28;20247;-74
2021/12/17 13:31:42;;;;;;;4.10;3.70;;;13.60;99.60;;;;;;5016358;28;20228;-72
2021/12/17 13:34:16;;;;;;;5.05;3.78;;;13.70;99.50;;;;;;5016995;28;20315;-76
2021/12/17 13:36:59;;;;;;;4.82;4.32;;;13.70;99.90;;;;;;5015531;28;20235;-73
2021/12/17 13:39:29;;;;;;;3.88;3.58;;;13.70;99.40;;;;;;5016762;28;20394;-74
2021/12/17 13:41:58;;;;;;;4.07;3.70;;;13.20;99.40;;;;;;5015675;28;20718;-76
2021/12/17 13:44:28;;;;;;;3.88;3.55;;;12.60;99.90;;;;;;5015109;28;20219;-78
2021/12/17 13:47:11;;;;;;;4.22;3.80;;;12.10;99.90;;;;;;5015843;28;20220;-75
2021/12/17 13:49:40;;;;;;;3.85;3.55;;;11.60;99.90;;;;;;5011122;28;20301;-74
2021/12/17 13:52:07;;;;;;;4.03;3.65;;;11.40;99.90;;;;;;5016123;28;20242;-77
2021/12/17 13:54:34;;;;;;;4.60;3.92;;;11.20;99.90;;;;;;5016800;28;20254;-74
2021/12/17 13:57:05;;;;;;;3.63;3.33;;;11.00;99.90;;;;;;5024551;28;20235;-73
2021/12/17 13:59:34;;;;;;;3.38;3.08;;;10.90;99.90;;;;;;5015627;28;20235;-73
2021/12/17 14:02:08;;;;;;;4.03;3.63;;;10.80;99.90;;;;;;5017077;28;20314;-71
2021/12/17 14:04:36;;;;;;;3.92;3.58;;;10.70;99.90;;;;;;5013041;28;20306;-73
2021/12/17 14:07:05;;;;;;;4.70;4.30;;;10.50;99.90;;;;;;5016967;28;20669;-72
2021/12/17 14:09:32;;;;;;;4.85;4.45;;;10.30;99.90;;;;;;5016241;28;20273;-73
2021/12/17 14:12:25;;;;;;;4.55;4.15;;;10.10;99.90;;;;;;5013625;28;20285;-72
2021/12/17 14:14:58;;;;;;;8.38;5.07;;;10.00;99.90;;;;;;5019784;28;20551;-73
2021/12/17 14:17:32;;;;;;;7.00;6.30;;;9.90;99.90;;;;;;5019391;28;21059;-74
2021/12/17 14:20:06;;;;;;;6.15;5.38;;;9.70;99.90;;;;;;5018040;28;20246;-74
2021/12/17 14:22:35;;;;;;;5.50;5.00;;;9.70;99.90;;;;;;5015086;28;20244;-71
2021/12/17 14:25:27;;;;;;;7.63;5.00;;;9.60;99.90;;;;;;5016864;28;20239;-73
2021/12/17 14:27:56;;;;;;;4.90;4.40;;;9.60;99.90;;;;;;5018507;28;20215;-72
2021/12/17 14:30:26;;;;;;;5.65;4.90;;;9.60;99.90;;;;;;5015843;28;20256;-71
2021/12/17 14:32:53;;;;;;;5.00;4.50;;;9.60;99.90;;;;;;5016874;28;20227;-71
2021/12/17 14:35:49;;;;;;;4.82;4.43;;;9.50;99.90;;;;;;5014976;28;20659;-72
2021/12/17 14:38:18;;;;;;;7.28;6.22;;;9.40;99.90;;;;;;5013841;28;20223;-75
2021/12/17 14:40:54;;;;;;;8.50;7.70;;;9.40;99.90;;;;;;4988331;28;20587;-73
2021/12/17 14:43:25;;;;;;;7.22;6.57;;;9.30;99.90;;;;;;5018627;28;20227;-73
2021/12/17 14:45:58;;;;;;;5.95;5.45;;;9.30;99.90;;;;;;5017877;28;20232;-74
2021/12/17 14:48:35;;;;;;;5.68;5.18;;;9.20;99.90;;;;;;5026919;28;20231;-77
2021/12/17 15:02:38;;;;;;;4.15;3.75;;;9.00;99.90;;;;;;4989817;28;20815;-79
2021/12/17 15:05:06;;;;;;;4.85;4.45;;;9.00;99.90;;;;;;5009691;28;20686;-77
2021/12/17 15:07:33;;;;;;;4.50;4.10;;;8.90;99.90;;;;;;5017440;28;20223;-75
2021/12/17 15:10:02;;;;;;;3.88;3.58;;;8.90;99.90;;;;;;5013217;28;20231;-73
2021/12/17 15:12:39;;;;;;;3.80;3.50;;;8.80;99.90;;;;;;5015207;28;20239;-80
2021/12/17 15:15:12;;;;;;;7.75;7.15;;;8.70;99.90;;;;;;5014154;28;20275;-75
2021/12/17 15:17:40;;;;;;;10.32;9.45;;;8.60;99.90;;;;;;5011153;28;20238;-72
2021/12/17 15:20:09;;;;;;;12.90;11.90;;;8.50;99.90;;;;;;5014509;28;20239;-73
2021/12/17 15:22:37;;;;;;;13.32;12.23;;;8.50;99.90;;;;;;5011733;28;20231;-75
2021/12/17 15:25:06;;;;;;;10.50;9.50;;;8.40;99.90;;;;;;5011432;28;20826;-74
2021/12/17 15:27:35;;;;;;;7.82;7.22;;;8.40;99.90;;;;;;5010892;28;20305;-73
2021/12/17 15:30:03;;;;;;;6.25;5.75;;;8.30;99.90;;;;;;5016655;28;20293;-74